Home > Products > Valid Products > TAF

000
FTUS43 KLSX 020520
TAFSTL
TAF
KSTL 020520Z 0206/0312 VRB03KT P6SM SCT150
     FM021600 23009KT P6SM SCT050=



000
FTUS43 KLSX 020520
TAFSUS
TAF
KSUS 020520Z 0206/0306 00000KT P6SM SCT150
     FM021600 23008KT P6SM SCT040
     FM022300 VRB03KT P6SM FEW200=



000
FTUS43 KLSX 020520
TAFCOU
TAF
KCOU 020520Z 0206/0306 VRB04KT P6SM SCT150
     FM021700 23010KT P6SM SCT040=



000
FTUS43 KLSX 020520
TAFUIN
TAF
KUIN 020520Z 0206/0306 VRB04KT P6SM FEW250
     FM021100 22007KT P6SM VCTS SCT050CB BKN150
     FM021600 23013G20KT P6SM FEW040
     FM030000 22008KT P6SM SCT150=



000
FTUS43 KLSX 020256 AAA
TAFSTL
TAF AMD
KSTL 020256Z 0203/0306 VRB05KT P6SM BKN150
     FM021600 23009KT P6SM SCT050=



000
FTUS43 KLSX 020100 AAA
TAFCOU
TAF AMD
KCOU 020100Z 0201/0224 VRB04KT P6SM SCT100
     FM021700 24011G18KT P6SM SCT050=



000
FTUS43 KLSX 020100 AAA
TAFCOU
TAF AMD
KCOU 020100Z 0201/0224 VRB04KT P6SM SCT100
     FM021700 24011G18KT P6SM SCT050=



000
FTUS43 KLSX 012324
TAFSTL
TAF
KSTL 012324Z 0200/0306 VRB05KT P6SM BKN150
     FM021600 23009KT P6SM SCT050=



000
FTUS43 KLSX 012324
TAFSUS
TAF
KSUS 012324Z 0200/0224 00000KT P6SM BKN150
     FM021600 23008KT P6SM SCT050=



000
FTUS43 KLSX 012324
TAFUIN
TAF
KUIN 012324Z 0200/0224 19006KT P6SM FEW150
     FM021100 22007KT P6SM VCSH SCT050 BKN150
     FM021600 23012G20KT P6SM FEW050=



000
FTUS43 KLSX 012324
TAFSTL
TAF
KSTL 012324Z 0200/0306 VRB05KT P6SM BKN150
     FM021600 23009KT P6SM SCT050=



000
FTUS43 KLSX 012324
TAFCOU
TAF
KCOU 012324Z 0200/0224 27009KT P6SM -RA VCTS SCT050CB BKN080
     FM020200 VRB04KT P6SM SCT100
     FM021700 24011G18KT P6SM SCT050=



000
FTUS43 KLSX 012324
TAFSUS
TAF
KSUS 012324Z 0200/0224 00000KT P6SM BKN150
     FM021600 23008KT P6SM SCT050=



000
FTUS43 KLSX 012324
TAFCOU
TAF
KCOU 012324Z 0200/0224 27009KT P6SM -RA VCTS SCT050CB BKN080
     FM020200 VRB04KT P6SM SCT100
     FM021700 24011G18KT P6SM SCT050=



000
FTUS43 KLSX 012324
TAFUIN
TAF
KUIN 012324Z 0200/0224 19006KT P6SM FEW150
     FM021100 22007KT P6SM VCSH SCT050 BKN150
     FM021600 23012G20KT P6SM FEW050=



000
FTUS43 KLSX 012312 AAB
TAFCOU
TAF AMD
KCOU 012312Z 0123/0218 28008KT P6SM -RA VCTS SCT045CB
     FM020200 VRB04KT P6SM SCT250
     FM021600 24012G18KT P6SM SCT050=



000
FTUS43 KLSX 012312 AAB
TAFCOU
TAF AMD
KCOU 012312Z 0123/0218 28008KT P6SM -RA VCTS SCT045CB
     FM020200 VRB04KT P6SM SCT250
     FM021600 24012G18KT P6SM SCT050=



000
FTUS43 KLSX 012100 AAA
TAFSTL
TAF AMD
KSTL 012100Z 0121/0224 12004KT P6SM SCT050 SCT250
     FM020000 VRB05KT P6SM FEW250
     FM021800 23008KT P6SM SCT050 SCT250=



000
FTUS43 KLSX 012100 AAA
TAFSTL
TAF AMD
KSTL 012100Z 0121/0224 12004KT P6SM SCT050 SCT250
     FM020000 VRB05KT P6SM FEW250
     FM021800 23008KT P6SM SCT050 SCT250=



000
FTUS43 KLSX 011933 AAA
TAFCOU
TAF AMD
KCOU 011933Z 0120/0218 21007KT P6SM VCTS SCT045CB
     FM020000 VRB04KT P6SM SCT250
     FM021600 24012G18KT P6SM SCT050=



000
FTUS43 KLSX 011933 AAA
TAFCOU
TAF AMD
KCOU 011933Z 0120/0218 21007KT P6SM VCTS SCT045CB
     FM020000 VRB04KT P6SM SCT250
     FM021600 24012G18KT P6SM SCT050=



000
FTUS43 KLSX 011725
TAFUIN
TAF
KUIN 011725Z 0118/0218 19008KT P6SM SCT045
     FM012100 21007KT P6SM SCT045 SCT120
     FM021000 20006KT P6SM VCSH SCT040
     FM021600 23012G18KT P6SM SCT040=



000
FTUS43 KLSX 011725
TAFSTL
TAF
KSTL 011725Z 0118/0224 12004KT P6SM SCT050 SCT250
     FM020000 VRB05KT P6SM FEW250
     FM021800 23008KT P6SM SCT050 SCT250=



000
FTUS43 KLSX 011725
TAFCOU
TAF
KCOU 011725Z 0118/0218 20006KT P6SM SCT045
     FM012100 21007KT P6SM VCTS SCT045CB
     FM020000 VRB04KT P6SM SCT250
     FM021600 24012G18KT P6SM SCT050=



000
FTUS43 KLSX 011725
TAFSUS
TAF
KSUS 011725Z 0118/0218 12004KT P6SM SCT050 SCT250
     FM020000 00000KT P6SM FEW250
     FM021500 VRB05KT P6SM SCT250=



000
FTUS43 KLSX 011120
TAFUIN
TAF
KUIN 011120Z 0112/0212 VRB03KT P6SM SCT060
     FM011500 23007KT P6SM SCT045
     FM020000 19005KT P6SM SCT120=



000
FTUS43 KLSX 011120
TAFSTL
TAF
KSTL 011120Z 0112/0218 VRB03KT P6SM SCT250
     FM011500 24006KT P6SM SCT050
     FM020000 VRB03KT P6SM FEW250=



000
FTUS43 KLSX 011120
TAFCOU
TAF
KCOU 011120Z 0112/0212 VRB03KT P6SM FEW060
     FM011500 24006KT P6SM SCT045
     FM020000 VRB04KT P6SM SCT250=



000
FTUS43 KLSX 011120
TAFUIN
TAF
KUIN 011120Z 0112/0212 VRB03KT P6SM SCT060
     FM011500 23007KT P6SM SCT045
     FM020000 19005KT P6SM SCT120=



000
FTUS43 KLSX 011120
TAFSTL
TAF
KSTL 011120Z 0112/0218 VRB03KT P6SM SCT250
     FM011500 24006KT P6SM SCT050
     FM020000 VRB03KT P6SM FEW250=



000
FTUS43 KLSX 011120
TAFCOU
TAF
KCOU 011120Z 0112/0212 VRB03KT P6SM FEW060
     FM011500 24006KT P6SM SCT045
     FM020000 VRB04KT P6SM SCT250=



000
FTUS43 KLSX 011120
TAFSUS
TAF
KSUS 011120Z 0112/0212 00000KT P6SM FEW250
     FM011500 22004KT P6SM SCT050
     FM020000 00000KT P6SM FEW250=



000
FTUS43 KLSX 011120
TAFSUS
TAF
KSUS 011120Z 0112/0212 00000KT P6SM FEW250
     FM011500 22004KT P6SM SCT050
     FM020000 00000KT P6SM FEW250=



000
FTUS43 KLSX 010703 AAA
TAFUIN
TAF AMD
KUIN 010703Z 0107/0206 VRB03KT P6SM VCTS FEW050CB BKN080
      TEMPO 0108/0110 5SM -TSRA BKN035CB
     FM011100 VRB03KT P6SM FEW060
     FM011500 23007KT P6SM SCT035
     FM020000 20005KT P6SM SCT120=



000
FTUS43 KLSX 010703 AAA
TAFUIN
TAF AMD
KUIN 010703Z 0107/0206 VRB03KT P6SM VCTS FEW050CB BKN080
      TEMPO 0108/0110 5SM -TSRA BKN035CB
     FM011100 VRB03KT P6SM FEW060
     FM011500 23007KT P6SM SCT035
     FM020000 20005KT P6SM SCT120=



000
FTUS43 KLSX 010520
TAFSTL
TAF
KSTL 010520Z 0106/0212 VRB02KT P6SM FEW250
     FM011500 24006KT P6SM SCT050
     FM020000 VRB03KT P6SM FEW250=



000
FTUS43 KLSX 010520
TAFUIN
TAF
KUIN 010520Z 0106/0206 VRB03KT P6SM FEW050
     FM011500 23007KT P6SM SCT035
     FM020000 20005KT P6SM SCT120=



000
FTUS43 KLSX 010520
TAFCOU
TAF
KCOU 010520Z 0106/0206 VRB03KT P6SM FEW060
     FM011500 24006KT P6SM SCT040
     FM020000 VRB04KT P6SM SCT250=



000
FTUS43 KLSX 010520
TAFSUS
TAF
KSUS 010520Z 0106/0206 00000KT P6SM FEW250
     FM011500 22005KT P6SM SCT050
     FM020000 00000KT P6SM FEW250=



000
FTUS43 KLSX 010520
TAFCOU
TAF
KCOU 010520Z 0106/0206 VRB03KT P6SM FEW060
     FM011500 24006KT P6SM SCT040
     FM020000 VRB04KT P6SM SCT250=



000
FTUS43 KLSX 010520
TAFUIN
TAF
KUIN 010520Z 0106/0206 VRB03KT P6SM FEW050
     FM011500 23007KT P6SM SCT035
     FM020000 20005KT P6SM SCT120=



000
FTUS43 KLSX 010520
TAFSUS
TAF
KSUS 010520Z 0106/0206 00000KT P6SM FEW250
     FM011500 22005KT P6SM SCT050
     FM020000 00000KT P6SM FEW250=



000
FTUS43 KLSX 010358 AAB
TAFUIN
TAF AMD
KUIN 010358Z 0104/0124 VRB03KT P6SM VCTS SCT050CB
     FM010600 VRB03KT P6SM FEW050
     FM011500 24008KT P6SM SCT040=



000
FTUS43 KLSX 010259 AAA
TAFSTL
TAF AMD
KSTL 010259Z 0103/0206 VRB02KT P6SM FEW060
     FM011500 26007KT P6SM SCT050
     FM020000 VRB03KT P6SM FEW250=



000
FTUS43 KLSX 010259 AAA
TAFSTL
TAF AMD
KSTL 010259Z 0103/0206 VRB02KT P6SM FEW060
     FM011500 26007KT P6SM SCT050
     FM020000 VRB03KT P6SM FEW250=



000
FTUS43 KLSX 010048 AAA
TAFUIN
TAF AMD
KUIN 010048Z 0101/0124 VRB03KT P6SM VCTS SCT050CB
     FM010300 VRB03KT P6SM FEW050
     FM011500 24008KT P6SM SCT040=



000
FTUS43 KLSX 010048 AAA
TAFUIN
TAF AMD
KUIN 010048Z 0101/0124 VRB03KT P6SM VCTS SCT050CB
     FM010300 VRB03KT P6SM FEW050
     FM011500 24008KT P6SM SCT040=



000
FTUS43 KLSX 312324
TAFCOU
TAF
KCOU 312324Z 0100/0124 VRB03KT P6SM FEW060
     FM011500 24007KT P6SM SCT050=



000
FTUS43 KLSX 312324
TAFSUS
TAF
KSUS 312324Z 0100/0124 00000KT P6SM FEW060
     FM011500 25006KT P6SM SCT050=



000
FTUS43 KLSX 312324
TAFSUS
TAF
KSUS 312324Z 0100/0124 00000KT P6SM FEW060
     FM011500 25006KT P6SM SCT050=



000
FTUS43 KLSX 312324
TAFUIN
TAF
KUIN 312324Z 0100/0124 30007KT P6SM SKC
     FM010100 VRB03KT P6SM SCT050
     FM011500 24008KT P6SM SCT040=



000
FTUS43 KLSX 312324
TAFSTL
TAF
KSTL 312324Z 0100/0206 32007KT P6SM FEW070
     FM010100 VRB03KT P6SM FEW060
     FM011500 26007KT P6SM SCT050
     FM020000 VRB03KT P6SM FEW250=



000
FTUS43 KLSX 312324
TAFCOU
TAF
KCOU 312324Z 0100/0124 VRB03KT P6SM FEW060
     FM011500 24007KT P6SM SCT050=



000
FTUS43 KLSX 312324
TAFSTL
TAF
KSTL 312324Z 0100/0206 32007KT P6SM FEW070
     FM010100 VRB03KT P6SM FEW060
     FM011500 26007KT P6SM SCT050
     FM020000 VRB03KT P6SM FEW250=



000
FTUS43 KLSX 312324
TAFUIN
TAF
KUIN 312324Z 0100/0124 30007KT P6SM SKC
     FM010100 VRB03KT P6SM SCT050
     FM011500 24008KT P6SM SCT040=



000
FTUS43 KLSX 312100 AAA
TAFSUS
TAF AMD
KSUS 312100Z 3121/0118 32007KT P6SM FEW060
     FM010100 00000KT P6SM SCT080
     FM011500 25006KT P6SM SCT040=



000
FTUS43 KLSX 312100 AAA
TAFSUS
TAF AMD
KSUS 312100Z 3121/0118 32007KT P6SM FEW060
     FM010100 00000KT P6SM SCT080
     FM011500 25006KT P6SM SCT040=



000
FTUS43 KLSX 312055 AAA
TAFSTL
TAF AMD
KSTL 312055Z 3121/0124 32007KT P6SM FEW070
     FM010100 VRB03KT P6SM SCT080
     FM011500 26007KT P6SM SCT040=



000
FTUS43 KLSX 312055 AAA
TAFSTL
TAF AMD
KSTL 312055Z 3121/0124 32007KT P6SM FEW070
     FM010100 VRB03KT P6SM SCT080
     FM011500 26007KT P6SM SCT040=



000
FTUS43 KLSX 311901 AAA
TAFCOU
TAF AMD
KCOU 311901Z 3119/0118 29006KT P6SM SKC
     FM010100 VRB03KT P6SM SCT080
     FM011500 26006KT P6SM SCT040=



000
FTUS43 KLSX 311901 AAA
TAFCOU
TAF AMD
KCOU 311901Z 3119/0118 29006KT P6SM SKC
     FM010100 VRB03KT P6SM SCT080
     FM011500 26006KT P6SM SCT040=



000
FTUS43 KLSX 311737
TAFSTL
TAF
KSTL 311737Z 3118/0124 30007KT P6SM SKC
     FM010100 VRB03KT P6SM SCT080
     FM011500 26007KT P6SM SCT040=



000
FTUS43 KLSX 311737
TAFSUS
TAF
KSUS 311737Z 3118/0118 30005KT P6SM SKC
     FM010100 00000KT P6SM SCT080
     FM011500 25006KT P6SM SCT040=



000
FTUS43 KLSX 311737
TAFUIN
TAF
KUIN 311737Z 3118/0118 29009KT P6SM FEW040
     FM010100 VRB03KT P6SM SCT080
     FM011500 25008KT P6SM SCT040=



000
FTUS43 KLSX 311737
TAFCOU
TAF
KCOU 311737Z 3118/0118 26008KT P6SM SKC
     FM010100 VRB03KT P6SM SCT080
     FM011500 26006KT P6SM SCT040=



000
FTUS43 KLSX 311502 AAA
TAFSTL
TAF AMD
KSTL 311502Z 3115/0118 30008KT P6SM SKC
     FM010100 VRB03KT P6SM SCT070=



000
FTUS43 KLSX 311502 AAA
TAFSTL
TAF AMD
KSTL 311502Z 3115/0118 30008KT P6SM SKC
     FM010100 VRB03KT P6SM SCT070=



000
FTUS43 KLSX 311332 AAA
TAFUIN
TAF AMD
KUIN 311332Z 3114/0112 25005KT P6SM BKN120
     FM311600 29009KT P6SM FEW040
     FM010100 VRB03KT P6SM SCT060=



000
FTUS43 KLSX 311332 AAA
TAFUIN
TAF AMD
KUIN 311332Z 3114/0112 25005KT P6SM BKN120
     FM311600 29009KT P6SM FEW040
     FM010100 VRB03KT P6SM SCT060=



000
FTUS43 KLSX 311120
TAFUIN
TAF
KUIN 311120Z 3112/0112 25005KT P6SM SKC
     FM311600 29009KT P6SM FEW040
     FM010100 VRB03KT P6SM SCT060=



000
FTUS43 KLSX 311120
TAFSTL
TAF
KSTL 311120Z 3112/0118 28005KT P6SM FEW250
     FM311500 30008KT P6SM SKC
     FM010100 VRB03KT P6SM SCT070=



000
FTUS43 KLSX 311120
TAFCOU
TAF
KCOU 311120Z 3112/0112 28004KT P6SM SKC
     FM311500 30007KT P6SM SCT070=



000
FTUS43 KLSX 311120
TAFSUS
TAF
KSUS 311120Z 3112/0112 VRB02KT P6SM SKC
     FM311500 29007KT P6SM SKC
     FM010000 00000KT P6SM SCT070=



000
FTUS43 KLSX 310903 AAA
TAFSTL
TAF AMD
KSTL 310903Z 3109/0112 VRB04KT P6SM FEW250
     FM311500 30008KT P6SM SKC
     FM010100 VRB03KT P6SM SCT070=



000
FTUS43 KLSX 310903 AAA
TAFSTL
TAF AMD
KSTL 310903Z 3109/0112 VRB04KT P6SM FEW250
     FM311500 30008KT P6SM SKC
     FM010100 VRB03KT P6SM SCT070=



000
FTUS43 KLSX 310520
TAFSTL
TAF
KSTL 310520Z 3106/0112 VRB04KT P6SM FEW250
     FM311500 30008KT P6SM SKC
     FM010100 VRB03KT P6SM SCT070=



000
FTUS43 KLSX 310520
TAFSTL
TAF
KSTL 310520Z 3106/0112 VRB04KT P6SM FEW250
     FM311500 30008KT P6SM SKC
     FM010100 VRB03KT P6SM SCT070=



000
FTUS43 KLSX 310520
TAFCOU
TAF
KCOU 310520Z 3106/0106 VRB03KT P6SM SKC
     FM311500 27007KT P6SM SKC=



000
FTUS43 KLSX 310520
TAFSUS
TAF
KSUS 310520Z 3106/0106 00000KT P6SM SKC
     FM311500 29007KT P6SM SKC
     FM010000 00000KT P6SM SCT070=



000
FTUS43 KLSX 310520
TAFSUS
TAF
KSUS 310520Z 3106/0106 00000KT P6SM SKC
     FM311500 29007KT P6SM SKC
     FM010000 00000KT P6SM SCT070=



000
FTUS43 KLSX 310520
TAFCOU
TAF
KCOU 310520Z 3106/0106 VRB03KT P6SM SKC
     FM311500 27007KT P6SM SKC=



000
FTUS43 KLSX 310520
TAFUIN
TAF
KUIN 310520Z 3106/0106 25005KT P6SM SKC
     FM311700 29009KT P6SM FEW040
     FM010000 28004KT P6SM SCT060=



000
FTUS43 KLSX 310520
TAFUIN
TAF
KUIN 310520Z 3106/0106 25005KT P6SM SKC
     FM311700 29009KT P6SM FEW040
     FM010000 28004KT P6SM SCT060=



000
FTUS43 KLSX 310257 AAA
TAFSTL
TAF AMD
KSTL 310257Z 3103/0106 VRB03KT P6SM SCT250
     FM311500 29008KT P6SM SKC
     FM010100 VRB03KT P6SM FEW070=



000
FTUS43 KLSX 310257 AAA
TAFSTL
TAF AMD
KSTL 310257Z 3103/0106 VRB03KT P6SM SCT250
     FM311500 29008KT P6SM SKC
     FM010100 VRB03KT P6SM FEW070=



000
FTUS43 KLSX 302329
TAFSTL
TAF
KSTL 302329Z 3100/0106 31006KT P6SM BKN250
     FM310100 27004KT P6SM SCT250
     FM311500 29008KT P6SM SKC
     FM010100 VRB03KT P6SM FEW070=



000
FTUS43 KLSX 302329
TAFCOU
TAF
KCOU 302329Z 3100/3124 VRB03KT P6SM FEW250
     FM311500 27007KT P6SM SKC=



000
FTUS43 KLSX 302329
TAFUIN
TAF
KUIN 302329Z 3100/3124 26005KT P6SM SKC
     FM311700 29010KT P6SM FEW040=



000
FTUS43 KLSX 302329
TAFSTL
TAF
KSTL 302329Z 3100/0106 31006KT P6SM BKN250
     FM310100 27004KT P6SM SCT250
     FM311500 29008KT P6SM SKC
     FM010100 VRB03KT P6SM FEW070=



000
FTUS43 KLSX 302329
TAFSUS
TAF
KSUS 302329Z 3100/3124 00000KT P6SM SCT250
     FM311500 28006KT P6SM SKC=



000
FTUS43 KLSX 302329
TAFCOU
TAF
KCOU 302329Z 3100/3124 VRB03KT P6SM FEW250
     FM311500 27007KT P6SM SKC=



000
FTUS43 KLSX 302329
TAFUIN
TAF
KUIN 302329Z 3100/3124 26005KT P6SM SKC
     FM311700 29010KT P6SM FEW040=



000
FTUS43 KLSX 302329
TAFSUS
TAF
KSUS 302329Z 3100/3124 00000KT P6SM SCT250
     FM311500 28006KT P6SM SKC=



000
FTUS43 KLSX 302058 AAA
TAFSTL
TAF AMD
KSTL 302058Z 3021/3124 31007KT P6SM BKN250
     FM310100 27004KT P6SM SCT250
     FM311500 29008KT P6SM SKC=



000
FTUS43 KLSX 301922 AAA
TAFSUS
TAF AMD
KSUS 301922Z 3019/3118 27006KT P6SM BKN250
     FM310100 00000KT P6SM SKC
     FM311500 28006KT P6SM SKC=



000
FTUS43 KLSX 301921 AAA
TAFUIN
TAF AMD
KUIN 301921Z 3019/3118 29009KT P6SM SKC
     FM310100 25004KT P6SM SKC
     FM311500 28010KT P6SM FEW040=



000
FTUS43 KLSX 301921 AAA
TAFUIN
TAF AMD
KUIN 301921Z 3019/3118 29009KT P6SM SKC
     FM310100 25004KT P6SM SKC
     FM311500 28010KT P6SM FEW040=



000
FTUS43 KLSX 301920 AAA
TAFCOU
TAF AMD
KCOU 301920Z 3019/3118 VRB03KT P6SM BKN250
     FM311500 27007KT P6SM SKC=



000
FTUS43 KLSX 301920 AAA
TAFCOU
TAF AMD
KCOU 301920Z 3019/3118 VRB03KT P6SM BKN250
     FM311500 27007KT P6SM SKC=



000
FTUS43 KLSX 301728
TAFSTL
TAF
KSTL 301728Z 3018/3124 31008KT P6SM FEW040 SCT250
     FM310100 27004KT P6SM SKC
     FM311500 29008KT P6SM SKC=



000
FTUS43 KLSX 301728
TAFSUS
TAF
KSUS 301728Z 3018/3118 31005KT P6SM FEW040 SCT250
     FM310100 00000KT P6SM SKC
     FM311500 28006KT P6SM SKC=



000
FTUS43 KLSX 301728
TAFCOU
TAF
KCOU 301728Z 3018/3118 31005KT P6SM FEW040 BKN250
     FM310100 21003KT P6SM SKC
     FM311500 27007KT P6SM SKC=



000
FTUS43 KLSX 301728
TAFUIN
TAF
KUIN 301728Z 3018/3118 30008KT P6SM FEW040
     FM310100 25004KT P6SM SKC
     FM311500 28010KT P6SM FEW040=



000
FTUS43 KLSX 301728
TAFSTL
TAF
KSTL 301728Z 3018/3124 31008KT P6SM FEW040 SCT250
     FM310100 27004KT P6SM SKC
     FM311500 29008KT P6SM SKC=



000
FTUS43 KLSX 301728
TAFCOU
TAF
KCOU 301728Z 3018/3118 31005KT P6SM FEW040 BKN250
     FM310100 21003KT P6SM SKC
     FM311500 27007KT P6SM SKC=



000
FTUS43 KLSX 301728
TAFSUS
TAF
KSUS 301728Z 3018/3118 31005KT P6SM FEW040 SCT250
     FM310100 00000KT P6SM SKC
     FM311500 28006KT P6SM SKC=



000
FTUS43 KLSX 301728
TAFUIN
TAF
KUIN 301728Z 3018/3118 30008KT P6SM FEW040
     FM310100 25004KT P6SM SKC
     FM311500 28010KT P6SM FEW040=



000
FTUS43 KLSX 301505 AAA
TAFSTL
TAF AMD
KSTL 301505Z 3015/3118 31006KT P6SM FEW040
     FM310200 24003KT P6SM SKC=



000
FTUS43 KLSX 301505 AAA
TAFSTL
TAF AMD
KSTL 301505Z 3015/3118 31006KT P6SM FEW040
     FM310200 24003KT P6SM SKC=



000
FTUS43 KLSX 301135
TAFCOU
TAF
KCOU 301135Z 3012/3112 32003KT P6SM SKC
     FM301500 34005KT P6SM FEW040
     FM310100 VRB03KT P6SM SKC=



000
FTUS43 KLSX 301135
TAFUIN
TAF
KUIN 301135Z 3012/3112 29004KT P6SM SKC
     FM301500 31008KT P6SM FEW040
     FM310100 25004KT P6SM SKC=



000
FTUS43 KLSX 301135
TAFSTL
TAF
KSTL 301135Z 3012/3118 31004KT P6SM SKC
     FM301500 34007KT P6SM FEW040
     FM310200 24003KT P6SM SKC=



000
FTUS43 KLSX 301135
TAFSUS
TAF
KSUS 301135Z 3012/3112 VRB03KT P6SM SKC
     FM301500 34006KT P6SM FEW040
     FM310200 00000KT P6SM SKC=



000
FTUS43 KLSX 301135
TAFSTL
TAF
KSTL 301135Z 3012/3118 31004KT P6SM SKC
     FM301500 34007KT P6SM FEW040
     FM310200 24003KT P6SM SKC=



000
FTUS43 KLSX 301135
TAFCOU
TAF
KCOU 301135Z 3012/3112 32003KT P6SM SKC
     FM301500 34005KT P6SM FEW040
     FM310100 VRB03KT P6SM SKC=



000
FTUS43 KLSX 301135
TAFUIN
TAF
KUIN 301135Z 3012/3112 29004KT P6SM SKC
     FM301500 31008KT P6SM FEW040
     FM310100 25004KT P6SM SKC=



000
FTUS43 KLSX 301135
TAFSUS
TAF
KSUS 301135Z 3012/3112 VRB03KT P6SM SKC
     FM301500 34006KT P6SM FEW040
     FM310200 00000KT P6SM SKC=



000
FTUS43 KLSX 300914 AAA
TAFSTL
TAF AMD
KSTL 300914Z 3009/3112 32006KT P6SM FEW250
     FM310100 24005KT P6SM SKC=



000
FTUS43 KLSX 300914 AAA
TAFSTL
TAF AMD
KSTL 300914Z 3009/3112 32006KT P6SM FEW250
     FM310100 24005KT P6SM SKC=



    US Dept of Commerce
    National Oceanic and Atmospheric Administration
    National Weather Service
    1325 East West Highway
    Silver Spring, MD 20910
    Page Author: NWS Internet Services Team
Disclaimer
Information Quality
Credits
Glossary
Privacy Policy
Freedom of Information Act (FOIA)
About Us
Career Opportunities